Latest Coastal Weather Observations for Wilsons Promontory

IDV60701

Issued at 5:12 am EDT Tuesday 21 February 2017 (issued every 10 minutes, with the page automatically refreshed every 10 minutes)

About coastal observations | Map of coastal stations | Coastal observations for VIC | Marine services | Other Formats
Station Details ID: 085096 Name: WILSONS PROMONTORY LIGHTHOUSE Lat: -39.13 Lon: 146.42 Height: 95.0 m
Data from the previous 72 hours. | See also: Recent months at Wilsons Promontory
Date/Time
EDT
Temp
°C
Wind Pressure Rain since
9am
mm
Weather Cloud Vis
km
Sea
Height
m
Swell
Dir  Spd
kts
Gust
kts
hPa Trend Height
m
Period
s
Dir
21/05:10am 15.0 W 15 25 1016.5 - 2.0 - - - - - - -
21/05:00am 15.0 W 18 24 1016.1 - 2.0 - - - - - - -
21/04:30am 14.9 W 17 24 1016.1 - 2.0 - - - - - - -
21/04:00am 14.8 W 15 21 1016.0 - 2.0 - - - - - - -
21/03:30am 14.7 W 18 24 1015.9 - 2.0 - - - - - - -
21/03:00am 14.9 W 16 21 1015.5 - 2.0 - - - - - - -
21/02:30am 15.0 W 16 25 1015.3 - 2.0 - - - - - - -
21/02:27am 14.9 W 15 25 1015.2 - 2.0 - - - - - - -
21/02:00am 14.9 W 16 24 1015.3 - 2.0 - - - - - - -
21/01:30am 14.9 W 20 27 1015.4 - 2.0 - - - - - - -
21/01:23am 14.9 W 19 29 1015.4 - 2.0 - - - - - - -
21/01:00am 15.0 W 19 26 1015.3 - 2.0 - - - - - - -
21/12:30am 15.0 W 22 29 1015.1 - 2.0 - - - - - - -
21/12:18am 15.2 W 22 33 1014.7 - 2.0 - - - - - - -
21/12:00am 15.3 W 21 30 1014.4 - 2.0 - - - - - - -
 
Date/Time
EDT
Temp
°C
Wind Pressure Rain since
9am
mm
Weather Cloud Vis
km
Sea
Height
m
Swell
Dir  Spd
kts
Gust
kts
hPa Trend Height
m
Period
s
Dir
20/11:35pm 15.1 W 23 33 1014.7 - 2.0 - - - - - - -
20/11:30pm 15.1 W 26 33 1014.6 - 2.0 - - - - - - -
20/11:07pm 15.1 W 21 31 1014.5 - 2.0 - - - - - - -
20/11:00pm 14.9 W 24 33 1014.4 - 2.0 - - - - - - -
20/10:37pm 15.0 W 23 33 1014.3 - 2.0 - - - - - - -
20/10:30pm 15.0 W 25 32 1014.2 - 2.0 - - - - - - -
20/10:00pm 15.1 W 21 32 1014.1 - 2.0 - - - - - - -
20/09:39pm 15.0 W 23 33 1013.7 - 2.0 - - - - - - -
20/09:30pm 14.9 W 25 33 1013.5 - 2.0 - - - - - - -
20/09:00pm 14.9 W 26 36 1013.0 - 2.0 - - - - - - -
20/08:54pm 15.0 W 26 36 1013.1 - 2.0 - - - - - - -
20/08:30pm 14.9 W 25 33 1012.6 - 2.0 - - - - - - -
20/08:01pm 15.2 W 25 35 1012.1 - 2.0 - - - - - - -
20/08:00pm 15.2 W 26 35 1012.2 - 2.0 - - - - - - -
20/07:48pm 15.4 W 25 35 1011.8 - 2.0 - - - - - - -
20/07:30pm 15.4 W 28 36 1011.6 - 2.0 - - - - - - -
20/07:04pm 15.3 W 26 36 1011.3 - 2.0 - - - - - - -
20/07:00pm 15.4 W 27 36 1011.3 - 2.0 - - - - - - -
20/06:30pm 15.0 W 25 35 1011.0 - 2.0 - - - - - - -
20/06:07pm 15.4 W 27 37 1010.6 - 2.0 - - - - - - -
20/06:00pm 15.5 W 29 37 1010.2 - 2.0 - - - - - - -
20/05:30pm 15.1 W 26 37 1010.3 - 2.0 - - - - - - -
20/05:05pm 15.2 W 29 39 1009.8 - 2.0 - - - - - - -
20/05:00pm 15.1 WSW 31 39 1009.6 - 2.0 - - - - - - -
20/04:30pm 15.6 W 24 34 1009.8 - 1.8 - - - - - - -
20/04:00pm 16.0 W 26 37 1009.5 - 1.4 - - - - - - -
20/03:30pm 15.9 W 25 37 1009.5 - 1.4 - - - - - - -
20/03:00pm 15.8 W 28 39 1009.2 - 1.4 - - - - - - -
20/02:51pm 15.6 WSW 31 41 1009.3 - 1.4 - - - - - - -
20/02:43pm 15.1 WSW 37 41 1008.9 - 1.4 - - - - - - -
20/02:31pm 15.6 W 24 43 1009.1 - 1.4 - - - - - - -
20/02:30pm 15.6 W 24 43 1009.2 - 1.4 - - - - - - -
20/02:26pm 15.3 WSW 39 43 1008.7 - 1.4 - - - - - - -
20/02:00pm 15.2 W 26 39 1008.9 - 1.2 - - - - - - -
20/01:31pm 15.1 W 27 37 1008.6 - 1.2 - - - - - - -
20/01:30pm 15.2 W 27 35 1008.6 - 1.2 - - - - - - -
20/01:00pm 15.4 W 26 37 1008.7 - 1.2 - - - - - - -
20/12:31pm 15.3 WSW 27 37 1008.5 - 1.0 - - - - - - -
20/12:30pm 15.2 WSW 27 35 1008.5 - 1.0 - - - - - - -
20/12:00pm 14.9 W 22 32 1008.5 - 1.0 - - - - - - -
20/11:57am 14.9 W 21 32 1008.7 - 1.0 - - - - - - -
20/11:30am 14.2 W 23 32 1008.5 - 1.0 - - - - - - -
20/11:13am 15.0 W 22 34 1008.4 - 0.0 - - - - - - -
20/11:00am 14.2 WSW 33 38 1007.9 - 0.0 - - - - - - -
20/10:59am 14.1 WSW 32 38 1007.9 - 0.0 - - - - - - -
20/10:34am 15.0 W 20 30 1008.3 - 0.0 - - - - - - -
20/10:30am 15.5 W 20 29 1008.5 - 0.0 - - - - - - -
20/10:07am 14.2 W 20 30 1008.3 - 0.0 - - - - - - -
20/10:00am 14.4 W 23 31 1008.0 - 0.0 - - - - - - -
20/09:30am 14.5 W 23 32 1007.6 - 0.0 - - - - - - -
20/09:26am 14.5 WSW 26 36 1007.7 - 0.0 - - - - - - -
20/09:00am 14.3 WSW 29 37 1006.9 - 8.0 - - - - - - -
20/08:30am 14.3 SW 34 41 1006.5 - 8.0 - - - - - - -
20/08:00am 13.9 WSW 34 41 1006.1 - 8.0 - - - - - - -
20/07:30am 13.8 WSW 34 39 1006.0 - 8.0 - - - - - - -
20/07:00am 13.7 WSW 33 37 1005.7 - 8.0 - - - - - - -
20/06:30am 13.6 WSW 32 37 1005.5 - 8.0 - - - - - - -
20/06:00am 13.6 WSW 28 37 1005.1 - 8.0 - - - - - - -
20/05:30am 13.6 WSW 23 33 1005.1 - 8.0 - - - - - - -
20/05:27am 13.6 W 23 33 1005.1 - 8.0 - - - - - - -
20/05:00am 13.5 WSW 26 32 1005.0 - 8.0 - - - - - - -
20/04:37am 13.5 WSW 23 35 1004.9 - 8.0 - - - - - - -
20/04:30am 13.4 WSW 20 26 1005.3 - 8.0 - - - - - - -
20/04:18am 13.0 W 15 31 1005.7 - 8.0 - - - - - - -
20/04:00am 13.3 SW 23 29 1005.0 - 8.0 - - - - - - -
20/03:30am 13.1 SW 27 35 1004.7 - 8.0 - - - - - - -
20/03:24am 12.9 SW 21 29 1005.0 - 8.0 - - - - - - -
20/03:23am 13.0 W 15 27 1005.3 - 8.0 - - - - - - -
20/03:00am 12.4 W 17 25 1005.1 - 8.0 - - - - - - -
20/02:30am 11.9 SW 11 22 1005.7 - 8.0 - - - - - - -
20/02:26am 12.3 SW 15 23 1005.7 - 7.8 - - - - - - -
20/02:00am 12.9 W 20 27 1005.6 - 7.4 - - - - - - -
20/01:30am 12.9 W 19 27 1005.7 - 7.4 - - - - - - -
20/01:00am 13.0 W 19 26 1005.8 - 7.4 - - - - - - -
20/12:30am 12.9 W 16 26 1006.0 - 7.4 - - - - - - -
20/12:23am 12.9 W 15 26 1005.8 - 7.4 - - - - - - -
20/12:00am 12.6 W 14 22 1005.9 - 7.4 - - - - - - -
 
Date/Time
EDT
Temp
°C
Wind Pressure Rain since
9am
mm
Weather Cloud Vis
km
Sea
Height
m
Swell
Dir  Spd
kts
Gust
kts
hPa Trend Height
m
Period
s
Dir
19/11:30pm 12.0 WNW 15 22 1006.3 - 7.4 - - - - - - -
19/11:00pm 11.9 W 16 23 1006.7 - 7.4 - - - - - - -
19/10:30pm 12.7 W 12 21 1006.9 - 7.4 - - - - - - -
19/10:00pm 13.0 W 14 21 1006.8 - 7.4 - - - - - - -
19/09:30pm 13.2 W 14 23 1006.9 - 7.4 - - - - - - -
19/09:13pm 13.2 W 15 26 1006.7 - 7.4 - - - - - - -
19/09:00pm 13.1 W 14 22 1006.2 - 7.4 - - - - - - -
19/08:50pm 13.0 W 16 26 1006.5 - 7.4 - - - - - - -
19/08:30pm 13.0 W 15 23 1006.2 - 7.4 - - - - - - -
19/08:00pm 12.9 W 16 26 1006.0 - 7.4 - - - - - - -
19/07:42pm 12.9 W 17 27 1005.7 - 7.4 - - - - - - -
19/07:30pm 13.1 W 16 25 1005.5 - 7.4 - - - - - - -
19/07:10pm 13.1 W 15 25 1005.2 - 7.4 - - - - - - -
19/07:00pm 13.3 W 13 23 1005.2 - 7.4 - - - - - - -
19/06:30pm 13.5 W 16 28 1005.6 - 7.4 - - - - - - -
19/06:05pm 13.8 W 20 30 1005.3 - 7.4 - - - - - - -
19/06:00pm 13.7 W 21 30 1004.7 - 7.4 - - - - - - -
19/05:39pm 13.8 W 19 29 1004.9 - 7.4 - - - - - - -
19/05:30pm 13.7 W 23 30 1004.6 - 7.4 - - - - - - -
19/05:00pm 12.9 W 15 25 1005.1 - 7.4 - - - - - - -
19/04:31pm 14.0 W 18 29 1004.7 - 7.0 - - - - - - -
19/04:30pm 14.0 W 18 27 1004.9 - 7.0 - - - - - - -
19/04:07pm 13.7 W 19 30 1004.9 - 7.0 - - - - - - -
19/04:00pm 13.8 W 19 26 1005.2 - 7.0 - - - - - - -
19/03:37pm 14.1 W 20 31 1005.0 - 7.0 - - - - - - -
19/03:30pm 14.1 W 18 27 1005.0 - 7.0 - - - - - - -
19/03:17pm 13.8 W 15 27 1005.1 - 7.0 - - - - - - -
19/03:00pm 13.4 WNW 14 23 1005.0 - 7.0 - - - - - - -
19/02:55pm 13.5 WNW 15 25 1005.2 - 7.0 - - - - - - -
19/02:30pm 13.6 NNW 9 23 1005.5 - 7.0 - - - - - - -
19/02:00pm 12.1 WNW 11 20 1006.0 - 7.0 - - - - - - -
19/01:30pm 10.9 NW 15 22 1006.2 - 6.6 - - - - - - -
19/01:00pm 10.5 WNW 13 22 1006.5 - 6.4 - - - - - - -
19/12:40pm 10.9 W 20 30 1006.5 - 3.4 - - - - - - -
19/12:38pm 11.7 W 21 27 1006.3 - 3.0 - - - - - - -
19/12:30pm 13.4 NNW 11 17 1006.3 - 2.4 - - - - - - -
19/12:00pm 11.9 NNW 14 23 1006.4 - 1.6 - - - - - - -
19/11:30am 12.3 NNW 11 20 1006.8 - 1.6 - - - - - - -
19/11:00am 12.9 WNW 10 25 1007.0 - 1.6 - - - - - - -
19/10:40am 13.3 W 18 28 1006.6 - 1.6 - - - - - - -
19/10:30am 13.1 W 15 24 1006.7 - 1.6 - - - - - - -
19/10:03am 12.0 WNW 15 25 1006.6 - 1.6 - - - - - - -
19/10:00am 12.1 WNW 14 24 1006.6 - 1.6 - - - - - - -
19/09:30am 11.5 NW 15 30 1006.5 - 1.0 - - - - - - -
19/09:00am 11.0 NNW 17 28 1006.2 - 31.0 - - - - - - -
19/08:45am 11.1 N 15 25 1006.2 - 29.4 - - - - - - -
19/08:30am 11.1 NW 13 27 1006.3 - 28.8 - - - - - - -
19/08:00am 11.0 NW 9 19 1006.5 - 27.4 - - - - - - -
19/07:41am 10.7 NNW 15 26 1006.3 - 26.4 - - - - - - -
19/07:30am 10.4 NW 14 29 1006.2 - 26.2 - - - - - - -
19/07:11am 10.4 WNW 15 27 1006.4 - 24.4 - - - - - - -
19/07:08am 10.5 N 9 38 1006.6 - 24.2 - - - - - - -
19/07:00am 10.5 WNW 24 43 1006.4 - 23.8 - - - - - - -
19/06:58am 10.6 WNW 24 43 1006.5 - 23.6 - - - - - - -
19/06:55am 10.6 W 23 36 1006.1 - 21.4 - - - - - - -
19/06:30am 10.9 NW 12 28 1006.3 - 17.6 - - - - - - -
19/06:08am 10.9 WNW 23 40 1006.0 - 16.4 - - - - - - -
19/06:00am 11.4 W 20 40 1005.2 - 13.2 - - - - - - -
19/05:59am 11.6 W 19 40 1005.1 - 13.0 - - - - - - -
19/05:52am 11.7 W 18 28 1005.9 - 12.8 - - - - - - -
19/05:45am 11.9 W 22 27 1005.7 - 12.8 - - - - - - -
19/05:30am 12.1 W 7 17 1006.1 - 12.8 - - - - - - -
19/05:00am 11.4 WSW 9 16 1006.1 - 12.8 - - - - - - -
19/04:30am 11.0 WNW 13 29 1006.9 - 9.6 - - - - - - -
19/04:23am 11.5 WSW 16 29 1006.4 - 6.8 - - - - - - -
19/04:00am 11.7 NNW 14 26 1006.9 - 2.4 - - - - - - -
19/03:55am 11.8 NNW 15 26 1006.9 - 2.2 - - - - - - -
19/03:30am 11.9 NNW 10 19 1007.2 - 2.0 - - - - - - -
19/03:00am 11.9 NW 8 15 1007.5 - 1.8 - - - - - - -
19/02:30am 12.2 NNW 8 18 1008.2 - 0.8 - - - - - - -
19/02:00am 12.8 NNW 6 17 1008.4 - 0.2 - - - - - - -
19/01:30am 13.7 W 11 17 1008.5 - 0.2 - - - - - - -
19/01:00am 13.4 NNW 5 16 1008.9 - 0.2 - - - - - - -
19/12:30am 13.6 W 10 18 1009.0 - 0.2 - - - - - - -
19/12:00am 13.4 NW 10 14 1009.1 - 0.2 - - - - - - -
 
Date/Time
EDT
Temp
°C
Wind Pressure Rain since
9am
mm
Weather Cloud Vis
km
Sea
Height
m
Swell
Dir  Spd
kts
Gust
kts
hPa Trend Height
m
Period
s
Dir
18/11:30pm 13.6 W 10 16 1009.4 - 0.2 - - - - - - -
18/11:00pm 14.0 W 12 26 1009.5 - 0.2 - - - - - - -
18/10:30pm 14.0 W 12 20 1009.8 - 0.2 - - - - - - -
18/10:13pm 14.1 W 15 25 1010.1 - 0.2 - - - - - - -
18/10:00pm 14.1 W 15 24 1009.9 - 0.2 - - - - - - -
18/09:30pm 14.1 W 15 22 1010.0 - 0.2 - - - - - - -
18/09:00pm 14.4 W 15 23 1009.7 - 0.2 - - - - - - -
18/08:30pm 14.3 W 14 21 1009.7 - 0.2 - - - - - - -
18/08:00pm 14.2 W 15 23 1009.5 - 0.2 - - - - - - -
18/07:30pm 14.6 W 19 25 1009.2 - 0.2 - - - - - - -
18/07:00pm 15.2 W 19 25 1009.1 - 0.2 - - - - - - -
18/06:30pm 15.4 W 18 25 1008.9 - 0.2 - - - - - - -
18/06:00pm 15.5 W 17 25 1008.8 - 0.2 - - - - - - -
18/05:30pm 15.8 W 19 26 1008.8 - 0.2 - - - - - - -
18/05:07pm 16.6 W 17 27 1008.5 - 0.2 - - - - - - -
18/05:00pm 16.7 W 15 23 1008.8 - 0.2 - - - - - - -
18/04:49pm 16.7 W 15 25 1008.8 - 0.2 - - - - - - -
18/04:30pm 16.0 W 21 29 1008.8 - 0.2 - - - - - - -
18/04:00pm 17.2 W 20 29 1009.0 - 0.2 - - - - - - -
18/03:30pm 16.3 W 19 27 1009.1 - 0.2 - - - - - - -
18/03:00pm 16.1 W 18 25 1008.9 - 0.2 - - - - - - -
18/02:36pm 16.0 W 16 26 1009.1 - 0.2 - - - - - - -
18/02:30pm 15.5 W 18 25 1009.3 - 0.2 - - - - - - -
18/02:00pm 14.4 W 11 18 1009.5 - 0.2 - - - - - - -
18/01:30pm 15.1 W 13 18 1009.2 - 0.0 - - - - - - -
18/01:00pm 14.5 W 13 17 1009.3 - 0.0 - - - - - - -
18/12:30pm 14.6 W 14 17 1009.4 - 0.0 - - - - - - -
18/12:00pm 13.0 W 21 29 1009.2 - 0.0 - - - - - - -
18/11:50am 15.1 W 15 26 1009.1 - 0.0 - - - - - - -
18/11:30am 15.6 W 11 18 1009.3 - 0.0 - - - - - - -
18/11:00am 15.2 W 13 17 1009.3 - 0.0 - - - - - - -
18/10:30am 14.1 W 11 19 1009.4 - 0.0 - - - - - - -
18/10:15am 13.6 SW 26 33 1009.1 - 0.0 - - - - - - -
18/10:04am 14.7 W 15 31 1008.8 - 0.0 - - - - - - -
18/10:00am 15.8 W 12 19 1009.1 - 0.0 - - - - - - -
18/09:30am 15.1 W 12 16 1009.2 - 0.0 - - - - - - -
18/09:00am 14.6 W 15 20 1008.7 - 1.4 - - - - - - -
18/08:30am 14.3 WSW 16 18 1008.8 - 1.4 - - - - - - -
18/08:00am 14.0 W 17 22 1008.5 - 1.4 - - - - - - -
18/07:30am 14.0 W 16 26 1008.0 - 1.4 - - - - - - -
18/07:28am 14.1 W 16 26 1008.0 - 1.4 - - - - - - -
18/07:00am 13.3 W 10 17 1008.2 - 1.4 - - - - - - -
18/06:30am 13.8 W 17 23 1007.8 - 0.8 - - - - - - -
18/06:19am 14.3 W 15 26 1007.3 - 0.6 - - - - - - -
18/06:00am 15.0 W 10 18 1007.4 - 0.6 - - - - - - -
18/05:30am 15.0 W 15 21 1007.4 - 0.6 - - - - - - -

Other Formats:

Comma delimited format used in spreadsheet applications
http://www.bom.gov.au/fwo/IDV60701/IDV60701.94893.axf

JavaScript Object Notation format (JSON) in row-major order
http://www.bom.gov.au/fwo/IDV60701/IDV60701.94893.json